RYR5DZ LBSF-LICC
Flight info
| Callsign | RYR5DZ |
|---|---|
| Flight time | 1h 36m |
| Altitude | 36000 |
| Route | NAPET T214 SIN DCT BITLA/N0438F370 UN731 KAS/N0437F360 DCT RUTOM/N0439F370 DCT DODEL DCT PIMOR |
| Aircraft | B738/M-SDE2E3FGHIRWXY/LB1 |
Departure
| Time | 2026-04-30 18:06 |
|---|---|
| Airport | Sofia Airport (LBSF) |
Arrival
| Time | 2026-04-30 19:42 |
|---|---|
| Airport | Catania-Fontanarossa Airport (LICC) |
| Time | Latitude | Longitude | Altitude | Speed | Heading |
|---|---|---|---|---|---|
| 2026-04-30 17:52 | 42.69025 | 23.40573 | 1748 ft | 0 kts | 196° |
| 2026-04-30 18:00 | 42.68984 | 23.40530 | 1742 ft | 9 kts | 266° |
| 2026-04-30 18:01 | 42.69038 | 23.40264 | 1745 ft | 20 kts | 287° |
| 2026-04-30 18:02 | 42.69164 | 23.39632 | 1744 ft | 23 kts | 287° |
| 2026-04-30 18:02 | 42.69579 | 23.39583 | 1744 ft | 20 kts | 4° |
| 2026-04-30 18:03 | 42.69664 | 23.39592 | 1744 ft | 0 kts | 5° |
| 2026-04-30 18:05 | 42.69757 | 23.39935 | 1749 ft | 61 kts | 95° |
| 2026-04-30 18:06 | 42.69418 | 23.45632 | 3927 ft | 170 kts | 91° |
| 2026-04-30 18:07 | 42.65633 | 23.49645 | 5679 ft | 261 kts | 207° |
| 2026-04-30 18:08 | 42.61659 | 23.43843 | 7578 ft | 289 kts | 234° |
| 2026-04-30 18:09 | 42.56568 | 23.35187 | 10730 ft | 320 kts | 233° |
| 2026-04-30 18:10 | 42.50524 | 23.25370 | 13640 ft | 344 kts | 233° |
| 2026-04-30 18:11 | 42.43690 | 23.16156 | 16982 ft | 348 kts | 224° |
| 2026-04-30 18:11 | 42.38164 | 23.09693 | 19215 ft | 352 kts | 225° |
| 2026-04-30 18:12 | 42.33231 | 23.03857 | 20940 ft | 356 kts | 226° |
| 2026-04-30 18:13 | 42.28887 | 22.98700 | 22437 ft | 359 kts | 226° |
| 2026-04-30 18:13 | 42.23838 | 22.92707 | 24021 ft | 364 kts | 226° |
| 2026-04-30 18:14 | 42.20023 | 22.88187 | 25027 ft | 366 kts | 226° |
| 2026-04-30 18:15 | 42.14213 | 22.81317 | 26301 ft | 374 kts | 226° |
| 2026-04-30 18:15 | 42.08306 | 22.74352 | 27607 ft | 379 kts | 227° |
| 2026-04-30 18:16 | 42.04336 | 22.69681 | 28394 ft | 383 kts | 227° |
| 2026-04-30 18:16 | 42.00300 | 22.64939 | 29162 ft | 388 kts | 227° |
| 2026-04-30 18:17 | 41.98260 | 22.62547 | 29506 ft | 390 kts | 227° |
| 2026-04-30 18:17 | 41.96187 | 22.60116 | 29870 ft | 392 kts | 227° |
| 2026-04-30 18:17 | 41.92089 | 22.55321 | 30529 ft | 395 kts | 227° |
| 2026-04-30 18:18 | 41.90015 | 22.52897 | 30855 ft | 396 kts | 227° |
| 2026-04-30 18:18 | 41.87942 | 22.50480 | 31252 ft | 394 kts | 227° |
| 2026-04-30 18:18 | 41.85875 | 22.48070 | 31623 ft | 394 kts | 227° |
| 2026-04-30 18:18 | 41.83778 | 22.45684 | 31912 ft | 396 kts | 226° |
| 2026-04-30 18:19 | 41.81651 | 22.43320 | 32179 ft | 399 kts | 226° |
| 2026-04-30 18:19 | 41.79512 | 22.40963 | 32572 ft | 397 kts | 226° |
| 2026-04-30 18:19 | 41.77377 | 22.38618 | 32975 ft | 396 kts | 226° |
| 2026-04-30 18:19 | 41.75249 | 22.36276 | 33294 ft | 397 kts | 226° |
| 2026-04-30 18:20 | 41.73116 | 22.33923 | 33585 ft | 397 kts | 226° |
| 2026-04-30 18:20 | 41.70982 | 22.31569 | 33921 ft | 397 kts | 226° |
| 2026-04-30 18:20 | 41.68856 | 22.29222 | 34272 ft | 396 kts | 226° |
| 2026-04-30 18:20 | 41.66726 | 22.26872 | 34502 ft | 397 kts | 226° |
| 2026-04-30 18:21 | 41.64591 | 22.24514 | 34688 ft | 400 kts | 226° |
| 2026-04-30 18:21 | 41.62443 | 22.22145 | 34906 ft | 401 kts | 226° |
| 2026-04-30 18:21 | 41.60294 | 22.19777 | 35158 ft | 401 kts | 226° |
| 2026-04-30 18:21 | 41.58138 | 22.17405 | 35382 ft | 402 kts | 226° |
| 2026-04-30 18:22 | 41.55977 | 22.15029 | 35601 ft | 403 kts | 226° |
| 2026-04-30 18:22 | 41.51644 | 22.10270 | 36005 ft | 405 kts | 226° |
| 2026-04-30 18:22 | 41.49466 | 22.07881 | 36209 ft | 406 kts | 226° |
| 2026-04-30 18:23 | 41.45061 | 22.03053 | 36246 ft | 412 kts | 226° |
| 2026-04-30 18:23 | 41.40667 | 21.98254 | 36241 ft | 408 kts | 225° |
| 2026-04-30 18:24 | 41.34140 | 21.91143 | 36246 ft | 402 kts | 226° |
| 2026-04-30 18:25 | 41.29820 | 21.86440 | 36226 ft | 402 kts | 226° |
| 2026-04-30 18:25 | 41.23324 | 21.79382 | 36247 ft | 404 kts | 226° |
| 2026-04-30 18:26 | 41.16756 | 21.72265 | 36237 ft | 408 kts | 226° |
| 2026-04-30 18:27 | 41.10148 | 21.65129 | 36241 ft | 408 kts | 225° |
| 2026-04-30 18:28 | 41.03531 | 21.58003 | 36240 ft | 409 kts | 225° |
| 2026-04-30 18:28 | 40.96895 | 21.50872 | 36235 ft | 410 kts | 225° |
| 2026-04-30 18:29 | 40.88026 | 21.41375 | 36228 ft | 410 kts | 225° |
| 2026-04-30 18:30 | 40.79182 | 21.31935 | 36185 ft | 411 kts | 225° |
| 2026-04-30 18:31 | 40.72517 | 21.24845 | 36197 ft | 410 kts | 225° |
| 2026-04-30 18:32 | 40.65854 | 21.17776 | 36183 ft | 411 kts | 225° |
| 2026-04-30 18:33 | 40.59181 | 21.10712 | 36168 ft | 410 kts | 225° |
| 2026-04-30 18:33 | 40.52492 | 21.03652 | 36143 ft | 412 kts | 225° |
| 2026-04-30 18:34 | 40.45774 | 20.96579 | 36131 ft | 413 kts | 225° |
| 2026-04-30 18:35 | 40.41283 | 20.91861 | 36123 ft | 414 kts | 225° |
| 2026-04-30 18:35 | 40.36779 | 20.87139 | 36104 ft | 415 kts | 225° |
| 2026-04-30 18:36 | 40.30007 | 20.80054 | 36112 ft | 416 kts | 225° |
| 2026-04-30 18:37 | 40.23235 | 20.72988 | 36086 ft | 417 kts | 225° |
| 2026-04-30 18:37 | 40.18694 | 20.68260 | 36074 ft | 418 kts | 225° |
| 2026-04-30 18:38 | 40.14146 | 20.63533 | 36065 ft | 418 kts | 225° |
| 2026-04-30 18:38 | 40.09595 | 20.58812 | 36062 ft | 417 kts | 225° |
| 2026-04-30 18:39 | 40.05044 | 20.54100 | 36073 ft | 417 kts | 225° |
| 2026-04-30 18:39 | 40.00496 | 20.49398 | 36062 ft | 417 kts | 225° |
| 2026-04-30 18:40 | 39.95957 | 20.44713 | 36046 ft | 416 kts | 225° |
| 2026-04-30 18:40 | 39.91417 | 20.40035 | 36050 ft | 416 kts | 225° |
| 2026-04-30 18:41 | 39.86885 | 20.35374 | 36056 ft | 415 kts | 225° |
| 2026-04-30 18:41 | 39.82356 | 20.30724 | 36070 ft | 413 kts | 225° |
| 2026-04-30 18:42 | 39.77826 | 20.26080 | 36044 ft | 416 kts | 225° |
| 2026-04-30 18:42 | 39.70990 | 20.19086 | 36044 ft | 417 kts | 225° |
| 2026-04-30 18:45 | 39.45651 | 19.93331 | 36048 ft | 423 kts | 225° |
| 2026-04-30 18:46 | 39.41015 | 19.88644 | 36039 ft | 423 kts | 225° |
| 2026-04-30 18:46 | 39.36376 | 19.83964 | 36047 ft | 423 kts | 225° |
| 2026-04-30 18:47 | 39.31739 | 19.79293 | 36053 ft | 423 kts | 225° |
| 2026-04-30 18:47 | 39.27098 | 19.74626 | 36044 ft | 423 kts | 225° |
| 2026-04-30 18:48 | 39.22492 | 19.70002 | 36049 ft | 422 kts | 225° |
| 2026-04-30 18:48 | 39.17852 | 19.65352 | 36051 ft | 422 kts | 225° |
| 2026-04-30 18:49 | 39.13211 | 19.60709 | 36052 ft | 422 kts | 225° |
| 2026-04-30 18:49 | 39.08566 | 19.56070 | 36058 ft | 423 kts | 225° |
| 2026-04-30 18:50 | 39.03916 | 19.51434 | 36058 ft | 423 kts | 225° |
| 2026-04-30 18:50 | 38.99261 | 19.46800 | 36061 ft | 423 kts | 225° |
| 2026-04-30 18:51 | 38.94599 | 19.42167 | 36073 ft | 424 kts | 225° |
| 2026-04-30 18:51 | 38.89926 | 19.37532 | 36068 ft | 425 kts | 225° |
| 2026-04-30 18:52 | 38.85245 | 19.32897 | 36066 ft | 425 kts | 225° |
| 2026-04-30 18:52 | 38.80555 | 19.28260 | 36069 ft | 426 kts | 225° |
| 2026-04-30 18:53 | 38.75861 | 19.23628 | 36071 ft | 426 kts | 225° |
| 2026-04-30 18:53 | 38.71161 | 19.18997 | 36072 ft | 426 kts | 225° |
| 2026-04-30 18:54 | 38.66453 | 19.14366 | 36074 ft | 427 kts | 225° |
| 2026-04-30 18:54 | 38.61742 | 19.09739 | 36070 ft | 427 kts | 225° |
| 2026-04-30 18:55 | 38.57023 | 19.05112 | 36067 ft | 428 kts | 225° |
| 2026-04-30 18:55 | 38.52700 | 19.00057 | 36075 ft | 414 kts | 239° |
| 2026-04-30 18:55 | 38.51064 | 18.97071 | 36071 ft | 408 kts | 246° |
| 2026-04-30 18:56 | 38.47766 | 18.87273 | 36074 ft | 400 kts | 255° |
| 2026-04-30 18:57 | 38.44719 | 18.77350 | 36073 ft | 401 kts | 254° |
| 2026-04-30 18:57 | 38.42661 | 18.70744 | 36079 ft | 401 kts | 254° |
| 2026-04-30 18:58 | 38.39567 | 18.60886 | 36080 ft | 401 kts | 254° |
| 2026-04-30 18:59 | 38.36448 | 18.50995 | 36093 ft | 401 kts | 254° |
| 2026-04-30 19:00 | 38.32283 | 18.37838 | 36081 ft | 400 kts | 254° |
| 2026-04-30 19:01 | 38.28122 | 18.24758 | 36089 ft | 397 kts | 254° |
| 2026-04-30 19:02 | 38.25364 | 18.16120 | 36088 ft | 395 kts | 254° |
| 2026-04-30 19:03 | 38.21223 | 18.03192 | 36089 ft | 394 kts | 254° |
| 2026-04-30 19:04 | 38.17068 | 17.90284 | 36095 ft | 395 kts | 254° |
| 2026-04-30 19:05 | 38.12883 | 17.77343 | 36096 ft | 397 kts | 254° |
| 2026-04-30 19:06 | 38.08665 | 17.64359 | 36098 ft | 398 kts | 253° |
| 2026-04-30 19:06 | 38.05484 | 17.54608 | 36100 ft | 399 kts | 253° |
| 2026-04-30 19:07 | 38.02292 | 17.44856 | 36099 ft | 399 kts | 253° |
| 2026-04-30 19:08 | 37.98025 | 17.31869 | 36099 ft | 399 kts | 253° |
| 2026-04-30 19:09 | 37.94821 | 17.22154 | 36098 ft | 398 kts | 253° |
| 2026-04-30 19:09 | 37.92697 | 17.15733 | 36099 ft | 398 kts | 253° |
| 2026-04-30 19:10 | 37.88417 | 17.02838 | 36097 ft | 397 kts | 253° |
| 2026-04-30 19:11 | 37.85204 | 16.93195 | 36104 ft | 396 kts | 253° |
| 2026-04-30 19:12 | 37.83070 | 16.86815 | 36078 ft | 386 kts | 253° |
| 2026-04-30 19:12 | 37.81014 | 16.80696 | 36075 ft | 367 kts | 253° |
| 2026-04-30 19:13 | 37.79088 | 16.74982 | 36020 ft | 339 kts | 254° |
| 2026-04-30 19:13 | 37.77281 | 16.69603 | 34956 ft | 333 kts | 255° |
| 2026-04-30 19:13 | 37.76364 | 16.66838 | 33603 ft | 352 kts | 255° |
| 2026-04-30 19:14 | 37.75413 | 16.63996 | 33282 ft | 345 kts | 254° |
| 2026-04-30 19:14 | 37.74473 | 16.61211 | 32875 ft | 342 kts | 254° |
| 2026-04-30 19:14 | 37.73543 | 16.58464 | 32529 ft | 340 kts | 254° |
| 2026-04-30 19:14 | 37.72620 | 16.55737 | 32190 ft | 336 kts | 254° |
| 2026-04-30 19:15 | 37.71704 | 16.53029 | 31830 ft | 334 kts | 254° |
| 2026-04-30 19:15 | 37.69892 | 16.47676 | 31149 ft | 329 kts | 253° |
| 2026-04-30 19:15 | 37.68993 | 16.45025 | 30809 ft | 327 kts | 253° |
| 2026-04-30 19:16 | 37.68100 | 16.42391 | 30473 ft | 325 kts | 253° |
| 2026-04-30 19:16 | 37.67211 | 16.39773 | 30136 ft | 324 kts | 253° |
| 2026-04-30 19:16 | 37.65446 | 16.34584 | 29383 ft | 319 kts | 253° |
| 2026-04-30 19:17 | 37.64575 | 16.32025 | 29034 ft | 317 kts | 253° |
| 2026-04-30 19:17 | 37.62840 | 16.26928 | 28350 ft | 320 kts | 253° |
| 2026-04-30 19:17 | 37.61947 | 16.24299 | 28003 ft | 332 kts | 253° |
| 2026-04-30 19:18 | 37.60496 | 16.19801 | 27361 ft | 329 kts | 258° |
| 2026-04-30 19:18 | 37.59895 | 16.16032 | 26569 ft | 328 kts | 268° |
| 2026-04-30 19:18 | 37.59666 | 16.13180 | 26129 ft | 328 kts | 268° |
| 2026-04-30 19:19 | 37.59438 | 16.10333 | 25777 ft | 325 kts | 268° |
| 2026-04-30 19:19 | 37.59210 | 16.07514 | 25412 ft | 322 kts | 268° |
| 2026-04-30 19:19 | 37.58749 | 16.01969 | 24709 ft | 318 kts | 268° |
| 2026-04-30 19:20 | 37.58516 | 15.99205 | 24365 ft | 316 kts | 268° |
| 2026-04-30 19:20 | 37.58284 | 15.96454 | 24023 ft | 314 kts | 268° |
| 2026-04-30 19:20 | 37.57820 | 15.91005 | 23272 ft | 311 kts | 268° |
| 2026-04-30 19:21 | 37.57588 | 15.88303 | 22901 ft | 309 kts | 268° |
| 2026-04-30 19:21 | 37.57329 | 15.82935 | 22038 ft | 306 kts | 274° |
| 2026-04-30 19:22 | 37.57423 | 15.77610 | 21327 ft | 302 kts | 274° |
| 2026-04-30 19:22 | 37.57547 | 15.69758 | 20344 ft | 295 kts | 274° |
| 2026-04-30 19:23 | 37.57626 | 15.62074 | 19391 ft | 290 kts | 273° |
| 2026-04-30 19:24 | 37.57670 | 15.57018 | 18766 ft | 287 kts | 273° |
| 2026-04-30 19:24 | 37.57690 | 15.54508 | 18466 ft | 286 kts | 273° |
| 2026-04-30 19:24 | 37.57730 | 15.49518 | 17766 ft | 283 kts | 272° |
| 2026-04-30 19:25 | 37.57782 | 15.42148 | 16816 ft | 278 kts | 272° |
| 2026-04-30 19:26 | 37.57751 | 15.37277 | 16113 ft | 278 kts | 271° |
| 2026-04-30 19:26 | 37.57679 | 15.32421 | 15482 ft | 276 kts | 271° |
| 2026-04-30 19:26 | 37.57644 | 15.30007 | 15183 ft | 275 kts | 271° |
| 2026-04-30 19:27 | 37.57577 | 15.25212 | 14575 ft | 273 kts | 271° |
| 2026-04-30 19:27 | 37.57511 | 15.20438 | 14055 ft | 269 kts | 272° |
| 2026-04-30 19:28 | 37.57478 | 15.18146 | 13917 ft | 262 kts | 272° |
| 2026-04-30 19:28 | 37.57373 | 15.13673 | 13529 ft | 253 kts | 268° |
| 2026-04-30 19:29 | 37.57006 | 15.09284 | 12970 ft | 251 kts | 267° |
| 2026-04-30 19:29 | 37.56811 | 15.07108 | 12699 ft | 249 kts | 267° |
| 2026-04-30 19:30 | 37.56244 | 15.00604 | 11594 ft | 251 kts | 266° |
| 2026-04-30 19:30 | 37.55870 | 14.96256 | 11068 ft | 249 kts | 267° |
| 2026-04-30 19:31 | 37.55501 | 14.91938 | 10543 ft | 247 kts | 266° |
| 2026-04-30 19:31 | 37.55317 | 14.89790 | 10276 ft | 247 kts | 266° |
| 2026-04-30 19:31 | 37.54949 | 14.85500 | 9654 ft | 245 kts | 266° |
| 2026-04-30 19:32 | 37.54764 | 14.83335 | 9038 ft | 251 kts | 266° |
| 2026-04-30 19:32 | 37.54576 | 14.81139 | 8580 ft | 251 kts | 266° |
| 2026-04-30 19:32 | 37.54388 | 14.78978 | 8267 ft | 245 kts | 266° |
| 2026-04-30 19:32 | 37.54206 | 14.76884 | 8055 ft | 236 kts | 265° |
| 2026-04-30 19:33 | 37.54028 | 14.74832 | 7787 ft | 237 kts | 265° |
| 2026-04-30 19:33 | 37.53847 | 14.72768 | 7517 ft | 238 kts | 265° |
| 2026-04-30 19:33 | 37.53666 | 14.70692 | 7249 ft | 239 kts | 265° |
| 2026-04-30 19:33 | 37.53482 | 14.68629 | 6990 ft | 241 kts | 262° |
| 2026-04-30 19:34 | 37.52811 | 14.66694 | 6688 ft | 247 kts | 231° |
| 2026-04-30 19:34 | 37.51424 | 14.65443 | 6426 ft | 250 kts | 200° |
| 2026-04-30 19:34 | 37.47952 | 14.65352 | 5899 ft | 253 kts | 175° |
| 2026-04-30 19:35 | 37.46202 | 14.65644 | 5624 ft | 255 kts | 165° |
| 2026-04-30 19:35 | 37.44718 | 14.66797 | 5358 ft | 252 kts | 127° |
| 2026-04-30 19:35 | 37.44073 | 14.68762 | 5125 ft | 240 kts | 95° |
| 2026-04-30 19:35 | 37.43985 | 14.70806 | 4882 ft | 231 kts | 91° |
| 2026-04-30 19:36 | 37.43973 | 14.72794 | 4621 ft | 223 kts | 87° |
| 2026-04-30 19:36 | 37.44065 | 14.74710 | 4370 ft | 216 kts | 84° |
| 2026-04-30 19:36 | 37.44345 | 14.78331 | 3943 ft | 200 kts | 83° |
| 2026-04-30 19:37 | 37.44485 | 14.80044 | 3732 ft | 194 kts | 83° |
| 2026-04-30 19:37 | 37.44621 | 14.81712 | 3529 ft | 188 kts | 84° |
| 2026-04-30 19:37 | 37.44746 | 14.83282 | 3476 ft | 174 kts | 84° |
| 2026-04-30 19:37 | 37.44870 | 14.84791 | 3248 ft | 171 kts | 84° |
| 2026-04-30 19:38 | 37.44992 | 14.86275 | 3041 ft | 171 kts | 84° |
| 2026-04-30 19:38 | 37.45112 | 14.87748 | 2818 ft | 167 kts | 84° |
| 2026-04-30 19:38 | 37.45231 | 14.89195 | 2591 ft | 164 kts | 84° |
| 2026-04-30 19:38 | 37.45344 | 14.90574 | 2376 ft | 153 kts | 83° |
| 2026-04-30 19:39 | 37.45448 | 14.91850 | 2185 ft | 137 kts | 83° |
| 2026-04-30 19:39 | 37.45544 | 14.93007 | 2029 ft | 130 kts | 84° |
| 2026-04-30 19:39 | 37.45638 | 14.94151 | 1839 ft | 133 kts | 83° |
| 2026-04-30 19:39 | 37.45741 | 14.95300 | 1647 ft | 131 kts | 83° |
| 2026-04-30 19:40 | 37.45831 | 14.96452 | 1476 ft | 133 kts | 84° |
| 2026-04-30 19:40 | 37.45926 | 14.97614 | 1284 ft | 133 kts | 85° |
| 2026-04-30 19:40 | 37.46018 | 14.98761 | 1148 ft | 133 kts | 84° |
| 2026-04-30 19:40 | 37.46111 | 14.99939 | 969 ft | 136 kts | 83° |
| 2026-04-30 19:41 | 37.46213 | 15.01118 | 755 ft | 134 kts | 83° |
| 2026-04-30 19:41 | 37.46308 | 15.02269 | 631 ft | 134 kts | 83° |
| 2026-04-30 19:41 | 37.46404 | 15.03450 | 395 ft | 136 kts | 81° |
| 2026-04-30 19:41 | 37.46506 | 15.04619 | 214 ft | 134 kts | 82° |
| 2026-04-30 19:42 | 37.46603 | 15.05774 | 29 ft | 130 kts | 82° |
| 2026-04-30 19:42 | 37.46691 | 15.06760 | 21 ft | 92 kts | 83° |
| 2026-04-30 19:42 | 37.46742 | 15.07325 | 22 ft | 39 kts | 84° |
| 2026-04-30 19:42 | 37.46786 | 15.07624 | 22 ft | 32 kts | 66° |
| 2026-04-30 19:43 | 37.46892 | 15.07805 | 21 ft | 18 kts | 15° |
| 2026-04-30 19:43 | 37.46933 | 15.07708 | 21 ft | 14 kts | 264° |
| 2026-04-30 19:43 | 37.46923 | 15.07585 | 21 ft | 14 kts | 264° |
| 2026-04-30 19:44 | 37.46904 | 15.07357 | 21 ft | 13 kts | 264° |
| 2026-04-30 19:44 | 37.46895 | 15.07247 | 21 ft | 12 kts | 264° |
| 2026-04-30 19:44 | 37.46886 | 15.07141 | 21 ft | 12 kts | 263° |
| 2026-04-30 19:44 | 37.46877 | 15.07037 | 21 ft | 12 kts | 263° |
| 2026-04-30 19:45 | 37.46881 | 15.06938 | 22 ft | 11 kts | 303° |
| 2026-04-30 19:45 | 37.46944 | 15.06914 | 21 ft | 2 kts | 354° |